Time,TemperatureF,DewpointF,PressureIn,WindDirection,WindDirectionDegrees,WindSpeedMPH,WindSpeedGustMPH,Humidity,HourlyPrecipIn,Conditions,Clouds,dailyrainin,SolarRadiationWatts/m^2,SoftwareType,DateUTC
2013-03-21 00:02:00,37.0,25.0,-100.00,NW,322,5.0,10.0,61,0.00,,,0.00,0.000000,,2013-03-21 06:02:00,
2013-03-21 00:12:00,36.0,24.0,-100.00,NW,317,5.0,7.0,61,0.00,,,0.00,0.000000,,2013-03-21 06:12:00,
2013-03-21 00:32:00,36.0,24.0,-100.00,NW,317,5.0,7.0,61,0.00,,,0.00,0.000000,,2013-03-21 06:32:00,
2013-03-21 00:42:00,36.0,24.0,-100.00,NW,317,5.0,7.0,61,0.00,,,0.00,0.000000,,2013-03-21 06:42:00,
2013-03-21 00:52:00,36.0,24.0,-100.00,NW,317,5.0,7.0,61,0.00,,,0.00,0.000000,,2013-03-21 06:52:00,
2013-03-21 01:02:00,36.0,24.0,-100.00,NW,317,5.0,7.0,61,0.00,,,0.00,0.000000,,2013-03-21 07:02:00,
2013-03-21 01:12:00,37.0,24.0,-100.00,WNW,298,3.0,8.0,58,0.00,,,0.00,0.000000,,2013-03-21 07:12:00,
2013-03-21 01:32:00,37.0,24.0,-100.00,WNW,298,3.0,8.0,58,0.00,,,0.00,0.000000,,2013-03-21 07:32:00,
2013-03-21 01:42:00,37.0,24.0,-100.00,WNW,298,3.0,8.0,58,0.00,,,0.00,0.000000,,2013-03-21 07:42:00,
2013-03-21 01:52:00,37.0,24.0,-100.00,WNW,298,3.0,8.0,58,0.00,,,0.00,0.000000,,2013-03-21 07:52:00,
2013-03-21 02:02:00,37.0,24.0,-100.00,WNW,298,3.0,8.0,58,0.00,,,0.00,0.000000,,2013-03-21 08:02:00,
2013-03-21 02:42:00,37.0,24.0,-100.00,NW,324,5.0,7.0,59,0.00,,,0.00,0.000000,,2013-03-21 08:42:00,
2013-03-21 02:52:00,37.0,24.0,-100.00,NW,324,5.0,7.0,59,0.00,,,0.00,0.000000,,2013-03-21 08:52:00,
2013-03-21 03:02:00,37.0,24.0,-100.00,NW,324,5.0,7.0,59,0.00,,,0.00,0.000000,,2013-03-21 09:02:00,
2013-03-21 03:11:00,37.0,24.0,-100.00,NW,324,5.0,7.0,59,0.00,,,0.00,0.000000,,2013-03-21 09:11:00,
2013-03-21 03:12:00,36.0,24.0,-100.00,SE,142,5.0,7.0,62,0.00,,,0.00,0.000000,,2013-03-21 09:12:00,
2013-03-21 03:33:00,36.0,24.0,-100.00,SE,142,5.0,7.0,62,0.00,,,0.00,0.000000,,2013-03-21 09:33:00,
2013-03-21 03:43:00,36.0,24.0,-100.00,SE,142,5.0,7.0,62,0.00,,,0.00,0.000000,,2013-03-21 09:43:00,
2013-03-21 03:53:00,36.0,24.0,-100.00,SE,142,5.0,7.0,62,0.00,,,0.00,0.000000,,2013-03-21 09:53:00,
2013-03-21 04:02:00,36.0,24.0,-100.00,SE,142,5.0,7.0,62,0.00,,,0.00,0.000000,,2013-03-21 10:02:00,
2013-03-21 04:12:00,35.0,25.0,-100.00,SSE,162,4.0,7.0,66,0.00,,,0.00,0.000000,,2013-03-21 10:12:00,
2013-03-21 04:43:00,35.0,25.0,-100.00,SSE,162,4.0,7.0,66,0.00,,,0.00,0.000000,,2013-03-21 10:43:00,
2013-03-21 04:53:00,35.0,25.0,-100.00,SSE,162,4.0,7.0,66,0.00,,,0.00,0.000000,,2013-03-21 10:53:00,
2013-03-21 05:02:00,35.0,25.0,-100.00,SSE,162,4.0,7.0,66,0.00,,,0.00,0.000000,,2013-03-21 11:02:00,
2013-03-21 05:12:00,35.0,25.0,-100.00,SSW,197,6.0,7.0,66,0.00,,,0.00,0.000000,,2013-03-21 11:12:00,
2013-03-21 05:33:00,35.0,25.0,-100.00,SSW,197,6.0,7.0,66,0.00,,,0.00,0.000000,,2013-03-21 11:33:00,
2013-03-21 05:43:00,35.0,25.0,-100.00,SSW,197,6.0,7.0,66,0.00,,,0.00,0.000000,,2013-03-21 11:43:00,
2013-03-21 05:53:00,35.0,25.0,-100.00,SSW,197,6.0,7.0,66,0.00,,,0.00,0.000000,,2013-03-21 11:53:00,
2013-03-21 06:02:00,35.0,25.0,-100.00,SSW,197,6.0,7.0,66,0.00,,,0.00,0.000000,,2013-03-21 12:02:00,
2013-03-21 06:12:00,35.0,23.0,-100.00,SSW,211,6.0,10.0,62,0.00,,,0.00,0.000000,,2013-03-21 12:12:00,
2013-03-21 06:33:00,35.0,23.0,-100.00,SSW,211,6.0,10.0,62,0.00,,,0.00,0.000000,,2013-03-21 12:33:00,
2013-03-21 06:43:00,35.0,23.0,-100.00,SSW,211,6.0,10.0,62,0.00,,,0.00,0.000000,,2013-03-21 12:43:00,
2013-03-21 06:52:00,35.0,23.0,-100.00,SSW,211,6.0,10.0,62,0.00,,,0.00,0.000000,,2013-03-21 12:52:00,
2013-03-21 07:02:00,35.0,23.0,-100.00,SSW,211,6.0,10.0,62,0.00,,,0.00,0.000000,,2013-03-21 13:02:00,
2013-03-21 07:32:00,33.0,27.0,-100.00,West,279,6.0,18.0,77,0.00,,,0.00,0.000000,,2013-03-21 13:32:00,
2013-03-21 07:42:00,33.0,27.0,-100.00,West,279,6.0,18.0,77,0.00,,,0.00,0.000000,,2013-03-21 13:42:00,
2013-03-21 07:52:00,33.0,27.0,-100.00,West,279,6.0,18.0,77,0.00,,,0.00,0.000000,,2013-03-21 13:52:00,
2013-03-21 08:02:00,33.0,27.0,-100.00,West,279,6.0,18.0,77,0.00,,,0.00,0.000000,,2013-03-21 14:02:00,
2013-03-21 08:11:00,33.0,27.0,-100.00,West,279,6.0,18.0,77,0.00,,,0.00,0.000000,,2013-03-21 14:11:00,
2013-03-21 08:12:00,35.0,27.0,-100.00,WNW,290,6.0,11.0,73,0.00,,,0.00,54.000000,,2013-03-21 14:12:00,
2013-03-21 08:43:00,35.0,27.0,-100.00,WNW,290,6.0,11.0,73,0.00,,,0.00,54.000000,,2013-03-21 14:43:00,
2013-03-21 08:52:00,35.0,27.0,-100.00,WNW,290,6.0,11.0,73,0.00,,,0.00,54.000000,,2013-03-21 14:52:00,
2013-03-21 09:03:00,35.0,27.0,-100.00,WNW,290,6.0,11.0,73,0.00,,,0.00,54.000000,,2013-03-21 15:03:00,
2013-03-21 09:12:00,38.0,28.0,-100.00,SSW,213,6.0,13.0,66,0.00,,,0.00,142.000000,,2013-03-21 15:12:00,
2013-03-21 09:33:00,38.0,28.0,-100.00,SSW,213,6.0,13.0,66,0.00,,,0.00,142.000000,,2013-03-21 15:33:00,
2013-03-21 09:43:00,38.0,28.0,-100.00,SSW,213,6.0,13.0,66,0.00,,,0.00,142.000000,,2013-03-21 15:43:00,
2013-03-21 09:53:00,38.0,28.0,-100.00,SSW,213,6.0,13.0,66,0.00,,,0.00,142.000000,,2013-03-21 15:53:00,
2013-03-21 10:03:00,38.0,28.0,-100.00,SSW,213,6.0,13.0,66,0.00,,,0.00,142.000000,,2013-03-21 16:03:00,
2013-03-21 10:12:00,42.0,27.0,-100.00,West,266,6.0,15.0,54,0.00,,,0.00,468.000000,,2013-03-21 16:12:00,
2013-03-21 10:33:00,42.0,27.0,-100.00,West,266,6.0,15.0,54,0.00,,,0.00,468.000000,,2013-03-21 16:33:00,
2013-03-21 10:42:00,42.0,27.0,-100.00,West,266,6.0,15.0,54,0.00,,,0.00,468.000000,,2013-03-21 16:42:00,
2013-03-21 10:53:00,42.0,27.0,-100.00,West,266,6.0,15.0,54,0.00,,,0.00,468.000000,,2013-03-21 16:53:00,
2013-03-21 11:02:00,42.0,27.0,-100.00,West,266,6.0,15.0,54,0.00,,,0.00,468.000000,,2013-03-21 17:02:00,
2013-03-21 11:33:00,44.0,26.0,-100.00,West,267,10.0,18.0,49,0.00,,,0.00,657.000000,,2013-03-21 17:33:00,
2013-03-21 11:43:00,44.0,26.0,-100.00,West,267,10.0,18.0,49,0.00,,,0.00,657.000000,,2013-03-21 17:43:00,
2013-03-21 11:53:00,44.0,26.0,-100.00,West,267,10.0,18.0,49,0.00,,,0.00,657.000000,,2013-03-21 17:53:00,
2013-03-21 12:02:00,44.0,26.0,-100.00,West,267,10.0,18.0,49,0.00,,,0.00,657.000000,,2013-03-21 18:02:00,
2013-03-21 12:11:00,44.0,26.0,-100.00,West,267,10.0,18.0,49,0.00,,,0.00,657.000000,,2013-03-21 18:11:00,
2013-03-21 12:12:00,46.0,22.0,-100.00,West,271,10.0,22.0,38,0.00,,,0.00,676.000000,,2013-03-21 18:12:00,
2013-03-21 12:43:00,46.0,22.0,-100.00,West,271,10.0,22.0,38,0.00,,,0.00,676.000000,,2013-03-21 18:43:00,
2013-03-21 12:52:00,46.0,22.0,-100.00,West,271,10.0,22.0,38,0.00,,,0.00,676.000000,,2013-03-21 18:52:00,
2013-03-21 13:02:00,46.0,22.0,-100.00,West,271,10.0,22.0,38,0.00,,,0.00,676.000000,,2013-03-21 19:02:00,
2013-03-21 13:12:00,47.0,16.0,-100.00,WNW,285,11.0,23.0,28,0.00,,,0.00,767.000000,,2013-03-21 19:12:00,
2013-03-21 13:43:00,47.0,16.0,-100.00,WNW,285,11.0,23.0,28,0.00,,,0.00,767.000000,,2013-03-21 19:43:00,
2013-03-21 13:52:00,47.0,16.0,-100.00,WNW,285,11.0,23.0,28,0.00,,,0.00,767.000000,,2013-03-21 19:52:00,
2013-03-21 14:02:00,47.0,16.0,-100.00,WNW,285,11.0,23.0,28,0.00,,,0.00,767.000000,,2013-03-21 20:02:00,
2013-03-21 14:12:00,45.0,18.0,-100.00,NW,308,14.0,29.0,33,0.00,,,0.00,842.000000,,2013-03-21 20:12:00,
2013-03-21 14:42:00,45.0,18.0,-100.00,NW,308,14.0,29.0,33,0.00,,,0.00,842.000000,,2013-03-21 20:42:00,
2013-03-21 14:53:00,45.0,18.0,-100.00,NW,308,14.0,29.0,33,0.00,,,0.00,842.000000,,2013-03-21 20:53:00,
2013-03-21 15:02:00,45.0,18.0,-100.00,NW,308,14.0,29.0,33,0.00,,,0.00,842.000000,,2013-03-21 21:02:00,
2013-03-21 15:12:00,46.0,17.0,-100.00,WNW,299,14.0,34.0,31,0.00,,,0.00,784.000000,,2013-03-21 21:12:00,
2013-03-21 15:43:00,46.0,17.0,-100.00,WNW,299,14.0,34.0,31,0.00,,,0.00,784.000000,,2013-03-21 21:43:00,
2013-03-21 15:53:00,46.0,17.0,-100.00,WNW,299,14.0,34.0,31,0.00,,,0.00,784.000000,,2013-03-21 21:53:00,
2013-03-21 16:02:00,46.0,17.0,-100.00,WNW,299,14.0,34.0,31,0.00,,,0.00,784.000000,,2013-03-21 22:02:00,
2013-03-21 16:12:00,46.0,9.0,-100.00,WNW,289,12.0,23.0,22,0.00,,,0.00,655.000000,,2013-03-21 22:12:00,
2013-03-21 16:33:00,46.0,9.0,-100.00,WNW,289,12.0,23.0,22,0.00,,,0.00,655.000000,,2013-03-21 22:33:00,
2013-03-21 16:43:00,46.0,9.0,-100.00,WNW,289,12.0,23.0,22,0.00,,,0.00,655.000000,,2013-03-21 22:43:00,
2013-03-21 16:52:00,46.0,9.0,-100.00,WNW,289,12.0,23.0,22,0.00,,,0.00,655.000000,,2013-03-21 22:52:00,
2013-03-21 17:02:00,46.0,9.0,-100.00,WNW,289,12.0,23.0,22,0.00,,,0.00,655.000000,,2013-03-21 23:02:00,
2013-03-21 17:33:00,45.0,8.0,-100.00,WNW,291,14.0,27.0,22,0.00,,,0.00,454.000000,,2013-03-21 23:33:00,
2013-03-21 17:43:00,45.0,8.0,-100.00,WNW,291,14.0,27.0,22,0.00,,,0.00,454.000000,,2013-03-21 23:43:00,
2013-03-21 17:53:00,45.0,8.0,-100.00,WNW,291,14.0,27.0,22,0.00,,,0.00,454.000000,,2013-03-21 23:53:00,
2013-03-21 18:02:00,45.0,8.0,-100.00,WNW,291,14.0,27.0,22,0.00,,,0.00,454.000000,,2013-03-22 00:02:00,
2013-03-21 18:11:00,45.0,8.0,-100.00,WNW,291,14.0,27.0,22,0.00,,,0.00,454.000000,,2013-03-22 00:11:00,
2013-03-21 19:12:00,38.0,5.0,-100.00,WNW,298,14.0,21.0,25,-99.99,,,0.00,60.000000,,2013-03-22 01:12:00,
2013-03-21 19:43:00,38.0,5.0,-100.00,WNW,298,14.0,21.0,25,-99.99,,,0.00,60.000000,,2013-03-22 01:43:00,
2013-03-21 19:53:00,38.0,5.0,-100.00,WNW,298,14.0,21.0,25,-99.99,,,0.00,60.000000,,2013-03-22 01:53:00,
2013-03-21 20:02:00,38.0,5.0,-100.00,WNW,298,14.0,21.0,25,-99.99,,,0.00,60.000000,,2013-03-22 02:02:00,
2013-03-21 20:12:00,36.0,7.0,-100.00,WNW,294,13.0,19.0,29,0.00,,,0.00,2.000000,,2013-03-22 02:12:00,
2013-03-21 20:43:00,36.0,7.0,-100.00,WNW,294,13.0,19.0,29,0.00,,,0.00,2.000000,,2013-03-22 02:43:00,
2013-03-21 20:52:00,36.0,7.0,-100.00,WNW,294,13.0,19.0,29,0.00,,,0.00,2.000000,,2013-03-22 02:52:00,
2013-03-21 21:02:00,36.0,7.0,-100.00,WNW,294,13.0,19.0,29,0.00,,,0.00,2.000000,,2013-03-22 03:02:00,
2013-03-21 21:12:00,34.0,8.0,-100.00,NW,316,8.0,17.0,33,0.00,,,0.00,0.000000,,2013-03-22 03:12:00,
2013-03-21 21:33:00,34.0,8.0,-100.00,NW,316,8.0,17.0,33,0.00,,,0.00,0.000000,,2013-03-22 03:33:00,
2013-03-21 21:43:00,34.0,8.0,-100.00,NW,316,8.0,17.0,33,0.00,,,0.00,0.000000,,2013-03-22 03:43:00,
2013-03-21 21:53:00,34.0,8.0,-100.00,NW,316,8.0,17.0,33,0.00,,,0.00,0.000000,,2013-03-22 03:53:00,
2013-03-21 22:03:00,34.0,8.0,-100.00,NW,316,8.0,17.0,33,0.00,,,0.00,0.000000,,2013-03-22 04:03:00,
2013-03-21 22:12:00,33.0,4.0,-100.00,NNW,348,10.0,15.0,29,0.00,,,0.00,0.000000,,2013-03-22 04:12:00,
2013-03-21 22:32:00,33.0,4.0,-100.00,NNW,348,10.0,15.0,29,0.00,,,0.00,0.000000,,2013-03-22 04:32:00,
2013-03-21 22:43:00,33.0,4.0,-100.00,NNW,348,10.0,15.0,29,0.00,,,0.00,0.000000,,2013-03-22 04:43:00,
2013-03-21 22:52:00,33.0,4.0,-100.00,NNW,348,10.0,15.0,29,0.00,,,0.00,0.000000,,2013-03-22 04:52:00,
2013-03-21 23:02:00,33.0,4.0,-100.00,NNW,348,10.0,15.0,29,0.00,,,0.00,0.000000,,2013-03-22 05:02:00,
2013-03-21 23:12:00,34.0,-2.0,-100.00,NW,318,7.0,14.0,21,0.00,,,0.00,0.000000,,2013-03-22 05:12:00,
2013-03-21 23:32:00,34.0,-2.0,-100.00,NW,318,7.0,14.0,21,0.00,,,0.00,0.000000,,2013-03-22 05:32:00,
2013-03-21 23:42:00,34.0,-2.0,-100.00,NW,318,7.0,14.0,21,0.00,,,0.00,0.000000,,2013-03-22 05:42:00,
2013-03-21 23:52:00,34.0,-2.0,-100.00,NW,318,7.0,14.0,21,0.00,,,0.00,0.000000,,2013-03-22 05:52:00,